Time;durP1;ratioP1;P1;durP2;ratioP2;P2;SDS_P1;SDS_P2;PMS_P1;PMS_P2;Temp;Humidity;BMP_temperature;BMP_pressure;BME280_temperature;BME280_humidity;BME280_pressure;Samples;Min_cycle;Max_cycle;Signal;HPM_P1;HPM_P2
2022/10/24 06:41:14;;;;;;;;;2.33;1.00;;;;;19.79;60.69;100610.09;5115252;27;45405;-81
2022/10/24 06:43:41;;;;;;;;;0.33;0.00;;;;;19.91;60.99;100615.28;5104175;27;45513;-81
2022/10/24 06:46:08;;;;;;;;;1.00;1.00;;;;;20.08;60.69;100613.69;5112984;27;45468;-79
2022/10/24 06:48:35;;;;;;;;;1.00;1.00;;;;;20.35;60.06;100620.09;5107708;27;45417;-80
2022/10/24 06:51:01;;;;;;;;;2.00;1.00;;;;;20.60;60.35;100618.50;5099981;27;47854;-78
2022/10/24 06:53:27;;;;;;;;;1.67;1.00;;;;;20.87;59.77;100619.50;5098114;27;45580;-78
2022/10/24 06:55:52;;;;;;;;;2.67;1.00;;;;;21.14;59.42;100631.19;5105863;27;45622;-80
2022/10/24 06:58:18;;;;;;;;;2.33;1.00;;;;;21.38;58.74;100632.41;5108392;27;45493;-77
2022/10/24 07:00:43;;;;;;;;;3.00;1.33;;;;;21.64;58.57;100638.84;5110762;27;45947;-81
2022/10/24 07:03:14;;;;;;;;;2.00;2.00;;;;;21.89;58.12;100639.03;5098177;27;45894;-82
2022/10/24 07:05:39;;;;;;;;;0.33;0.33;;;;;22.10;57.65;100647.59;5098323;27;45479;-86
2022/10/24 07:08:05;;;;;;;;;2.00;1.33;;;;;22.31;57.63;100654.44;5100823;27;45940;-87
2022/10/24 07:10:30;;;;;;;;;0.33;0.33;;;;;22.49;56.95;100661.63;5104884;27;45923;-87
2022/10/24 07:12:55;;;;;;;;;2.00;1.00;;;;;22.68;56.92;100657.81;5102459;27;45537;-90
2022/10/24 07:15:20;;;;;;;;;0.67;0.67;;;;;22.82;56.81;100659.03;5099273;27;45484;-83
2022/10/24 07:17:46;;;;;;;;;1.00;1.00;;;;;22.90;56.25;100663.63;5102300;27;45522;-91
2022/10/24 07:20:12;;;;;;;;;0.67;0.67;;;;;23.12;55.88;100672.09;5115555;27;50055;-90
2022/10/24 07:22:38;;;;;;;;;1.67;1.00;;;;;23.25;55.70;100683.28;5108686;27;45501;-89
2022/10/24 07:25:04;;;;;;;;;0.00;0.00;;;;;23.36;55.67;100682.13;5109877;27;45348;-82
2022/10/24 07:27:30;;;;;;;;;0.00;0.00;;;;;23.49;55.21;100680.75;5098119;27;45489;-80
2022/10/24 07:29:55;;;;;;;;;0.67;0.67;;;;;23.59;54.98;100677.91;5110972;27;46193;-81
2022/10/24 07:32:21;;;;;;;;;0.00;0.00;;;;;23.70;55.04;100685.66;5111496;27;45205;-81
2022/10/24 07:34:46;;;;;;;;;2.00;1.00;;;;;23.80;54.76;100682.78;5111616;27;45462;-79
2022/10/24 07:37:13;;;;;;;;;0.00;0.00;;;;;23.88;54.64;100690.91;5117230;27;45716;-78
2022/10/24 07:39:38;;;;;;;;;0.00;0.00;;;;;23.97;54.23;100691.72;5110603;27;46080;-78
2022/10/24 07:42:04;;;;;;;;;3.00;0.67;;;;;24.04;54.39;100698.13;5107384;27;45714;-78
2022/10/24 07:44:29;;;;;;;;;0.00;0.00;;;;;24.10;54.45;100712.06;5110195;27;45930;-78
2022/10/24 07:46:54;;;;;;;;;3.00;3.00;;;;;24.14;54.12;100711.53;5110717;27;45483;-86
2022/10/24 07:49:20;;;;;;;;;1.00;1.00;;;;;24.21;54.14;100717.13;5111797;27;46358;-95
2022/10/24 07:51:45;;;;;;;;;1.00;1.00;;;;;24.27;54.00;100721.84;5103121;27;45393;-90
2022/10/24 07:54:10;;;;;;;;;1.33;1.00;;;;;24.30;54.07;100720.66;5098813;27;45805;-86
2022/10/24 07:56:36;;;;;;;;;0.67;0.67;;;;;24.36;54.00;100721.81;5089634;27;49915;-82
2022/10/24 07:59:01;;;;;;;;;1.00;1.00;;;;;24.39;53.41;100721.47;5098466;27;46114;-87
2022/10/24 08:01:28;;;;;;;;;0.00;0.00;;;;;24.42;53.65;100726.53;5097505;27;45557;-86
2022/10/24 08:03:54;;;;;;;;;0.00;0.00;;;;;24.46;53.46;100722.47;5096757;27;45741;-81
2022/10/24 08:06:23;;;;;;;;;1.00;1.00;;;;;24.49;53.52;100732.97;5096082;27;46048;-79
2022/10/24 08:08:49;;;;;;;;;0.67;0.00;;;;;24.52;53.40;100729.06;5090332;27;48358;-82
2022/10/24 08:11:17;;;;;;;;;1.00;0.00;;;;;24.55;53.36;100734.97;5092569;27;45529;-78
2022/10/24 08:13:43;;;;;;;;;0.00;0.00;;;;;24.58;53.55;100734.63;5097466;27;45452;-77
2022/10/24 08:16:11;;;;;;;;;0.00;0.00;;;;;24.62;53.06;100735.13;5126382;27;45487;-76
2022/10/24 08:18:38;;;;;;;;;0.00;0.00;;;;;24.66;53.11;100730.19;5096779;27;46304;-77
2022/10/24 08:21:06;;;;;;;;;1.00;1.00;;;;;24.71;53.39;100738.63;5097251;27;45327;-78
2022/10/24 08:23:34;;;;;;;;;0.67;0.67;;;;;24.76;53.29;100738.94;5093933;27;45461;-78
2022/10/24 08:26:03;;;;;;;;;1.00;1.00;;;;;24.81;53.11;100733.00;5091507;27;45434;-80
2022/10/24 08:28:29;;;;;;;;;2.67;1.33;;;;;24.86;52.11;100731.44;5093692;27;45643;-80
2022/10/24 08:31:00;;;;;;;;;1.67;1.00;;;;;24.93;51.11;100741.63;5084910;27;54054;-80
2022/10/24 08:33:26;;;;;;;;;0.00;0.00;;;;;24.97;50.79;100745.69;5083688;27;45485;-81
2022/10/24 08:35:55;;;;;;;;;0.33;0.33;;;;;25.01;50.88;100744.28;5079262;27;45451;-79
2022/10/24 08:38:21;;;;;;;;;0.33;0.33;;;;;25.00;50.77;100743.44;5092557;27;46130;-86
2022/10/24 08:40:47;;;;;;;;;0.67;0.67;;;;;24.99;50.73;100754.47;5083162;27;45438;-87
2022/10/24 08:43:13;;;;;;;;;3.00;2.00;;;;;24.97;50.95;100751.09;5077400;27;45815;-83
2022/10/24 08:46:00;;;;;;;;;0.67;0.67;;;;;24.94;50.45;100754.16;5090376;27;45555;-82
2022/10/24 08:48:33;;;;;;;;;2.67;0.33;;;;;24.94;51.24;100746.88;5087728;27;45540;-86
2022/10/24 08:51:24;;;;;;;;;1.00;1.00;;;;;24.93;50.90;100747.06;5085434;27;45535;-79
2022/10/24 08:53:52;;;;;;;;;0.67;0.67;;;;;24.97;51.27;100748.41;5086466;27;45418;-78
2022/10/24 08:56:18;;;;;;;;;1.00;1.00;;;;;24.98;51.07;100763.66;5082496;27;45841;-77
2022/10/24 08:58:45;;;;;;;;;1.67;0.67;;;;;24.96;51.23;100752.97;5079929;27;45490;-77
2022/10/24 09:01:26;;;;;;;;;0.33;0.00;;;;;25.00;51.18;100753.44;5075053;27;45389;-78
2022/10/24 09:03:52;;;;;;;;;0.33;0.33;;;;;25.04;51.39;100768.38;5080393;27;45606;-78
2022/10/24 09:06:24;;;;;;;;;0.00;0.00;;;;;25.07;51.74;100772.59;5079222;27;45457;-78
2022/10/24 09:08:58;;;;;;;;;2.00;1.00;;;;;25.08;51.50;100774.28;5084469;27;45519;-81
2022/10/24 09:11:26;;;;;;;;;2.33;0.00;;;;;25.09;51.67;100768.66;5079130;27;45438;-81
2022/10/24 09:13:52;;;;;;;;;0.33;0.33;;;;;25.10;51.61;100764.09;5084209;27;45511;-78
2022/10/24 09:16:21;;;;;;;;;1.00;1.00;;;;;25.14;51.17;100776.31;5075206;27;45734;-78
2022/10/24 09:18:50;;;;;;;;;1.00;1.00;;;;;25.17;51.83;100777.81;5083109;27;46551;-82
2022/10/24 09:21:16;;;;;;;;;1.00;1.00;;;;;25.18;51.16;100777.59;5080805;27;45441;-81
2022/10/24 09:23:42;;;;;;;;;1.00;1.00;;;;;25.20;51.27;100782.88;5084366;27;45493;-79
2022/10/24 09:26:17;;;;;;;;;1.00;0.33;;;;;25.21;51.40;100774.53;5081457;27;47073;-79
2022/10/24 09:28:42;;;;;;;;;0.33;0.33;;;;;25.23;51.30;100779.81;5084194;27;45924;-78
2022/10/24 09:31:19;;;;;;;;;1.00;0.00;;;;;25.25;51.23;100781.31;5085043;27;45410;-79
2022/10/24 09:33:48;;;;;;;;;1.67;1.67;;;;;25.23;51.63;100775.22;5094287;27;45483;-84
2022/10/24 09:36:16;;;;;;;;;1.00;1.00;;;;;25.29;51.14;100784.50;5081931;27;45484;-83
2022/10/24 09:38:43;;;;;;;;;1.00;1.00;;;;;25.32;51.46;100788.72;5088238;27;46094;-84
2022/10/24 09:41:21;;;;;;;;;2.00;2.00;;;;;25.34;51.49;100782.09;5094155;27;45446;-82
2022/10/24 09:43:52;;;;;;;;;0.00;0.00;;;;;25.37;51.31;100779.03;5088654;27;45483;-80
2022/10/24 09:46:23;;;;;;;;;2.00;0.00;;;;;25.41;51.18;100781.41;5089816;27;45401;-78
2022/10/24 09:49:07;;;;;;;;;0.00;0.00;;;;;25.42;51.53;100786.63;5095075;27;47373;-82
2022/10/24 09:51:40;;;;;;;;;1.00;1.00;;;;;25.42;51.11;100796.66;5091928;27;45315;-79
2022/10/24 09:54:25;;;;;;;;;2.00;0.33;;;;;25.46;51.75;100784.41;5093285;27;45396;-82
2022/10/24 09:57:02;;;;;;;;;0.00;0.00;;;;;25.46;51.26;100784.41;5093756;27;45409;-88
2022/10/24 09:59:35;;;;;;;;;0.00;0.00;;;;;25.46;51.12;100779.81;5088598;27;45409;-82
2022/10/24 10:02:11;;;;;;;;;1.00;1.00;;;;;25.49;51.17;100792.19;5086622;27;45205;-78
2022/10/24 10:04:37;;;;;;;;;2.00;0.00;;;;;25.50;51.22;100783.03;5095272;27;45435;-84
2022/10/24 10:07:16;;;;;;;;;1.00;1.00;;;;;25.52;51.64;100799.97;5085693;27;45460;-80
2022/10/24 10:09:58;;;;;;;;;2.00;0.00;;;;;25.52;51.63;100794.56;5084650;27;45475;-82
2022/10/24 10:12:31;;;;;;;;;0.00;0.00;;;;;25.45;51.38;100793.56;5090632;27;45566;-81
2022/10/24 10:14:56;;;;;;;;;0.00;0.00;;;;;25.53;51.81;100802.53;5076814;27;45386;-80
2022/10/24 10:17:25;;;;;;;;;2.00;1.00;;;;;25.56;51.53;100803.22;5082128;27;45525;-80
2022/10/24 10:19:52;;;;;;;;;0.33;0.33;;;;;25.57;51.33;100808.47;5092124;27;46436;-82
2022/10/24 10:22:30;;;;;;;;;1.00;1.00;;;;;25.60;51.63;100801.81;5079221;27;45458;-81
2022/10/24 10:24:57;;;;;;;;;0.00;0.00;;;;;25.62;51.65;100800.63;5088886;27;45400;-79
2022/10/24 10:27:22;;;;;;;;;0.00;0.00;;;;;25.63;51.64;100799.59;5076874;27;45802;-81
2022/10/24 10:29:48;;;;;;;;;2.00;2.00;;;;;25.63;51.25;100802.31;5080149;27;45358;-81
2022/10/24 10:32:27;;;;;;;;;0.00;0.00;;;;;25.68;51.58;100806.34;5076273;27;46833;-82
2022/10/24 10:35:05;;;;;;;;;0.00;0.00;;;;;25.69;51.12;100805.31;5083931;27;45668;-81
2022/10/24 12:13:43;;;;;;;;;1.33;1.33;;;;;21.40;55.39;100800.50;5094374;27;45586;-87
2022/10/24 12:16:30;;;;;;;;;5.00;2.00;;;;;21.54;55.87;100798.28;5084126;27;45488;-82
2022/10/24 12:19:04;;;;;;;;;1.00;1.00;;;;;21.75;56.16;100781.81;5086642;27;45370;-84
2022/10/24 12:21:57;;;;;;;;;3.00;1.67;;;;;22.05;56.02;100781.50;5071985;27;45394;-87
2022/10/24 12:24:36;;;;;;;;;2.00;2.00;;;;;22.37;55.53;100785.44;5070072;27;45407;-78
2022/10/24 12:27:05;;;;;;;;;1.33;0.67;;;;;22.66;54.86;100783.41;5083970;27;45472;-84
2022/10/24 12:29:33;;;;;;;;;1.67;1.00;;;;;22.92;54.71;100779.81;5095879;27;45530;-83
2022/10/24 12:32:23;;;;;;;;;3.00;1.67;;;;;23.23;54.18;100776.53;5098730;27;45619;-89
2022/10/24 12:34:57;;;;;;;;;2.00;1.33;;;;;23.51;53.76;100779.81;5080939;27;45687;-93
2022/10/24 12:37:24;;;;;;;;;1.33;1.00;;;;;23.74;53.48;100783.75;5092887;27;45472;-91
2022/10/24 12:39:51;;;;;;;;;3.00;1.00;;;;;23.92;53.07;100787.09;5094005;27;45429;-94
2022/10/24 12:42:22;;;;;;;;;2.00;1.00;;;;;24.10;52.80;100782.56;5090429;27;45434;-82
2022/10/24 12:44:58;;;;;;;;;1.67;1.33;;;;;24.28;51.79;100788.63;5076971;27;46933;-83
2022/10/24 12:47:26;;;;;;;;;2.00;2.00;;;;;24.46;51.52;100791.13;5092070;27;45494;-81
2022/10/24 12:49:51;;;;;;;;;3.33;2.00;;;;;24.56;51.29;100790.09;5079162;27;45860;-79
2022/10/24 12:52:31;;;;;;;;;0.67;0.67;;;;;24.68;50.35;100806.84;5092209;27;45401;-84
2022/10/24 12:54:58;;;;;;;;;0.67;0.67;;;;;24.82;49.79;100800.69;5076873;27;46360;-83
2022/10/24 12:57:43;;;;;;;;;2.00;2.00;;;;;24.94;49.17;100792.19;5091803;27;45332;-85
2022/10/24 13:00:25;;;;;;;;;1.00;1.00;;;;;25.05;49.02;100801.81;5091401;27;45548;-84
2022/10/24 13:02:59;;;;;;;;;1.33;1.33;;;;;25.08;49.53;100810.44;5079894;27;45493;-85
2022/10/24 13:06:11;;;;;;;;;2.00;2.00;;;;;25.12;48.83;100813.63;5092140;27;45409;-82
2022/10/24 13:09:21;;;;;;;;;0.33;0.33;;;;;25.13;48.88;100813.47;5017205;28;45461;-84
2022/10/24 13:12:21;;;;;;;;;2.33;1.00;;;;;25.16;48.70;100825.84;5047475;28;45639;-84
2022/10/24 13:14:57;;;;;;;;;1.00;1.00;;;;;25.20;48.61;100820.88;4981588;28;45459;-84
2022/10/24 13:17:22;;;;;;;;;5.00;2.00;;;;;25.20;48.81;100829.03;4988896;28;45602;-84
2022/10/24 13:20:22;;;;;;;;;1.33;1.33;;;;;25.15;48.59;100817.88;4987701;28;45395;-79
2022/10/24 13:22:49;;;;;;;;;4.00;2.00;;;;;25.07;48.96;100816.91;4982816;28;45492;-78
2022/10/24 13:25:35;;;;;;;;;3.67;2.00;;;;;25.07;48.98;100826.91;4969690;28;45814;-79
2022/10/24 13:28:18;;;;;;;;;2.00;2.00;;;;;25.09;48.69;100824.88;4969916;28;45466;-80
2022/10/24 13:30:43;;;;;;;;;2.00;2.00;;;;;25.12;48.57;100832.66;4974003;28;45446;-80
2022/10/24 13:33:27;;;;;;;;;2.33;2.33;;;;;25.13;48.96;100839.75;4970443;28;45470;-82
2022/10/24 13:36:15;;;;;;;;;1.00;1.00;;;;;25.08;48.61;100832.16;4975191;28;45516;-80
2022/10/24 13:38:54;;;;;;;;;2.33;2.33;;;;;25.05;48.75;100826.25;4973934;28;45546;-81
2022/10/24 13:41:32;;;;;;;;;1.00;1.00;;;;;25.06;49.36;100827.94;4974763;28;45847;-79
2022/10/24 13:44:23;;;;;;;;;1.00;1.00;;;;;25.06;49.38;100819.78;4974764;28;45419;-81
2022/10/24 13:46:54;;;;;;;;;1.33;1.33;;;;;25.06;49.10;100820.63;4899061;28;45602;-83
2022/10/24 13:49:30;;;;;;;;;1.00;1.00;;;;;25.12;49.28;100816.34;4937783;28;46660;-75
2022/10/24 13:52:01;;;;;;;;;1.00;1.00;;;;;25.19;48.83;100822.78;4954984;28;45567;-76
2022/10/24 13:54:32;;;;;;;;;0.00;0.00;;;;;25.25;48.41;100804.91;4953916;28;45430;-86
2022/10/24 13:56:57;;;;;;;;;3.00;1.00;;;;;25.32;48.38;100811.31;4956279;28;45504;-82
2022/10/24 13:59:40;;;;;;;;;1.00;1.00;;;;;25.25;48.28;100791.31;4954941;28;54998;-88
2022/10/24 14:02:17;;;;;;;;;2.00;2.00;;;;;25.25;48.56;100797.63;4939140;28;45690;-84
2022/10/24 14:04:47;;;;;;;;;1.33;1.33;;;;;25.24;48.62;100797.78;4953488;28;45607;-81
2022/10/24 14:07:19;;;;;;;;;0.67;0.33;;;;;25.25;48.88;100788.59;4958325;28;45342;-82
2022/10/24 14:09:59;;;;;;;;;1.00;1.00;;;;;25.24;49.35;100797.78;4954825;28;45566;-81
2022/10/24 14:12:27;;;;;;;;;2.00;0.00;;;;;25.26;49.07;100798.47;4952918;28;45534;-82
2022/10/24 14:14:52;;;;;;;;;2.33;0.33;;;;;25.29;49.39;100805.41;4954638;28;45472;-82
2022/10/24 14:17:20;;;;;;;;;0.00;0.00;;;;;25.33;49.03;100802.16;4955319;28;45427;-85
2022/10/24 14:19:55;;;;;;;;;2.67;1.33;;;;;25.35;48.92;100813.69;4954050;28;47071;-77
2022/10/24 14:22:24;;;;;;;;;0.00;0.00;;;;;25.35;48.96;100819.13;4954047;28;45425;-76
2022/10/24 14:24:49;;;;;;;;;1.00;1.00;;;;;25.29;48.09;100825.25;5064500;27;45451;-74
2022/10/24 14:27:17;;;;;;;;;2.00;2.00;;;;;25.19;47.58;100827.34;5069859;27;45288;-75
2022/10/24 14:29:55;;;;;;;;;2.67;2.00;;;;;25.03;47.48;100822.84;5074399;27;47388;-76
2022/10/24 14:32:21;;;;;;;;;1.67;1.33;;;;;24.89;47.64;100811.69;5090167;27;45603;-76
2022/10/24 14:34:48;;;;;;;;;2.00;1.00;;;;;24.77;47.80;100826.66;5075173;27;45418;-76
2022/10/24 14:37:20;;;;;;;;;0.33;0.33;;;;;24.61;47.85;100815.66;5081086;27;45291;-76
2022/10/24 14:39:46;;;;;;;;;1.00;1.00;;;;;24.52;47.68;100818.59;5074950;27;45520;-77
2022/10/24 14:42:15;;;;;;;;;1.00;1.00;;;;;24.43;47.98;100810.47;5075525;27;45496;-74
2022/10/24 14:44:45;;;;;;;;;1.00;1.00;;;;;24.38;48.27;100817.41;5075741;27;45413;-75
2022/10/24 14:47:21;;;;;;;;;1.00;1.00;;;;;24.27;47.97;100810.50;5075968;28;45316;-74
2022/10/24 14:49:47;;;;;;;;;1.00;1.00;;;;;24.21;48.02;100810.16;5075340;28;46727;-75
2022/10/24 14:52:22;;;;;;;;;0.00;0.00;;;;;24.16;47.97;100817.13;5082744;27;45433;-78
2022/10/24 14:55:01;;;;;;;;;0.67;0.67;;;;;24.12;48.10;100826.63;5076848;27;45345;-78
2022/10/24 14:57:28;;;;;;;;;1.00;1.00;;;;;24.05;47.79;100824.56;5076254;28;45406;-78
2022/10/24 14:59:56;;;;;;;;;0.00;0.00;;;;;24.05;48.43;100834.56;5075253;27;45974;-78
2022/10/24 15:02:39;;;;;;;;;0.00;0.00;;;;;24.00;47.78;100828.78;5076859;27;45419;-79
2022/10/24 15:05:19;;;;;;;;;0.33;0.33;;;;;23.94;47.84;100827.59;5073323;27;45444;-74
2022/10/24 15:07:47;;;;;;;;;0.00;0.00;;;;;23.90;47.77;100843.34;5076855;27;45579;-74
2022/10/24 15:10:13;;;;;;;;;0.00;0.00;;;;;23.89;48.05;100838.09;5075028;27;45449;-78
2022/10/24 15:12:45;;;;;;;;;0.33;0.00;;;;;23.95;48.64;100838.28;5074985;27;45569;-75
2022/10/24 15:15:27;;;;;;;;;0.67;0.67;;;;;24.04;48.84;100847.25;5065720;27;45544;-75
2022/10/24 15:17:58;;;;;;;;;2.00;1.00;;;;;24.16;48.09;100849.66;5076306;27;45320;-79
2022/10/24 15:20:29;;;;;;;;;0.33;0.00;;;;;24.26;48.52;100853.03;5076343;27;45884;-77
2022/10/24 15:22:57;;;;;;;;;2.67;1.00;;;;;24.36;48.22;100855.56;5074664;27;45675;-76
2022/10/24 15:25:29;;;;;;;;;1.33;1.00;;;;;24.46;48.35;100853.53;5074158;27;45913;-77
2022/10/24 15:27:59;;;;;;;;;1.00;1.00;;;;;24.55;48.23;100853.50;5074622;28;45323;-76
2022/10/24 15:30:30;;;;;;;;;0.67;0.67;;;;;24.65;48.22;100853.31;5067641;28;48297;-78
2022/10/24 15:32:59;;;;;;;;;0.67;0.67;;;;;24.72;48.39;100862.44;5074824;28;45512;-78
2022/10/24 15:35:24;;;;;;;;;0.00;0.00;;;;;24.80;48.29;100853.47;5073862;28;45454;-79
2022/10/24 15:37:55;;;;;;;;;1.00;1.00;;;;;24.88;48.24;100860.75;5077193;27;45439;-79
2022/10/24 15:40:24;;;;;;;;;1.00;0.00;;;;;24.95;48.55;100854.44;5075455;27;45998;-74
2022/10/24 15:42:49;;;;;;;;;1.00;1.00;;;;;25.00;48.22;100853.91;5074689;27;45477;-75
2022/10/24 15:45:16;;;;;;;;;3.00;1.00;;;;;25.10;48.08;100862.69;5074746;27;45382;-82
2022/10/24 15:47:43;;;;;;;;;1.00;1.00;;;;;25.15;48.20;100851.31;5075245;28;45678;-78
2022/10/24 15:50:12;;;;;;;;;0.67;0.67;;;;;25.20;48.01;100850.75;5066167;27;47104;-80
2022/10/24 15:52:38;;;;;;;;;0.00;0.00;;;;;25.23;48.07;100864.88;5068320;27;45480;-81
2022/10/24 15:55:03;;;;;;;;;0.67;0.67;;;;;25.26;48.44;100863.66;5079477;27;45447;-83
2022/10/24 15:57:29;;;;;;;;;1.00;1.00;;;;;25.29;48.23;100871.44;5061796;28;45417;-79
2022/10/24 15:59:56;;;;;;;;;1.00;0.67;;;;;25.32;48.43;100871.09;5068680;27;49556;-79
2022/10/24 16:02:22;;;;;;;;;3.00;0.00;;;;;25.36;48.09;100860.69;5058213;28;45463;-81
2022/10/24 16:04:49;;;;;;;;;0.33;0.33;;;;;25.37;48.13;100859.66;5058416;28;45379;-78
2022/10/24 16:07:14;;;;;;;;;1.67;1.00;;;;;25.41;47.94;100860.19;5067431;27;45361;-79
2022/10/24 16:09:40;;;;;;;;;0.00;0.00;;;;;25.41;47.88;100863.72;5060486;27;46426;-79
2022/10/24 16:12:05;;;;;;;;;0.00;0.00;;;;;25.45;48.53;100867.78;5059732;27;46072;-80
2022/10/24 16:14:31;;;;;;;;;0.00;0.00;;;;;25.49;48.31;100870.97;5061091;28;45485;-83
2022/10/24 16:16:57;;;;;;;;;2.00;0.00;;;;;25.50;48.29;100869.97;5065273;27;45641;-80
2022/10/24 16:19:25;;;;;;;;;0.00;0.00;;;;;25.55;48.23;100869.44;5063134;28;45426;-80
2022/10/24 16:21:51;;;;;;;;;1.67;0.33;;;;;25.57;48.59;100873.69;5063251;28;45584;-78
2022/10/24 16:24:17;;;;;;;;;0.67;0.00;;;;;25.58;48.14;100859.06;5068087;27;45372;-79
2022/10/24 16:26:43;;;;;;;;;0.67;0.67;;;;;25.62;48.59;100862.28;5058460;27;45662;-79
2022/10/24 16:29:09;;;;;;;;;3.00;1.00;;;;;25.68;48.08;100858.00;5076572;27;46121;-74
2022/10/24 16:31:34;;;;;;;;;0.00;0.00;;;;;25.69;48.29;100863.25;5074481;27;45501;-83
2022/10/24 16:33:59;;;;;;;;;1.33;1.33;;;;;25.73;48.23;100861.00;5070870;27;45518;-79
2022/10/24 16:36:25;;;;;;;;;0.33;0.33;;;;;25.83;47.56;100860.78;5074362;28;46283;-78
2022/10/24 16:38:50;;;;;;;;;0.00;0.00;;;;;25.86;47.44;100872.13;5062036;27;45483;-81
2022/10/24 16:41:19;;;;;;;;;0.00;0.00;;;;;25.81;47.83;100871.84;5069406;28;45408;-77
2022/10/24 16:43:46;;;;;;;;;2.00;0.67;;;;;25.76;47.86;100877.81;5059553;27;45497;-78
2022/10/24 16:46:14;;;;;;;;;0.67;0.67;;;;;25.72;47.84;100876.50;5073597;27;45446;-79
2022/10/24 16:48:39;;;;;;;;;0.00;0.00;;;;;25.67;47.83;100878.91;5074948;27;46189;-88
2022/10/24 16:51:14;;;;;;;;;5.00;2.00;;;;;25.67;48.22;100889.78;5068730;27;45508;-91
2022/10/24 16:53:40;;;;;;;;;5.00;5.00;;;;;25.68;48.26;100885.19;5059288;27;45600;-90
2022/10/24 16:56:08;;;;;;;;;4.00;4.00;;;;;25.69;48.26;100889.59;5078157;27;45879;-88
2022/10/24 16:58:34;;;;;;;;;4.00;2.00;;;;;25.70;48.57;100891.31;5074295;27;45481;-79
2022/10/24 17:01:04;;;;;;;;;5.00;3.00;;;;;25.70;48.50;100897.56;5072215;27;45408;-86
2022/10/24 17:03:30;;;;;;;;;5.33;4.67;;;;;25.71;48.50;100899.25;5081858;27;45440;-87
2022/10/24 17:05:56;;;;;;;;;3.67;3.33;;;;;25.72;48.67;100905.53;5070205;27;45721;-81
2022/10/24 17:08:21;;;;;;;;;4.00;4.00;;;;;25.73;48.42;100907.22;5068185;28;46477;-91
2022/10/24 17:10:46;;;;;;;;;5.67;5.00;;;;;25.73;48.13;100909.94;5073036;27;45474;-78
2022/10/24 17:13:12;;;;;;;;;5.00;5.00;;;;;25.71;48.38;100915.56;5089187;27;57790;-84
2022/10/24 17:15:38;;;;;;;;;6.67;6.67;;;;;25.72;48.81;100913.69;5074880;27;45623;-79
2022/10/24 17:18:03;;;;;;;;;4.33;3.33;;;;;25.70;48.83;100910.31;5077281;27;45855;-86
2022/10/24 17:20:28;;;;;;;;;7.00;7.00;;;;;25.71;48.06;100926.44;5072231;28;45570;-73
2022/10/24 17:22:54;;;;;;;;;5.67;5.00;;;;;25.78;48.04;100919.25;5077871;27;45433;-72
2022/10/24 17:25:22;;;;;;;;;4.00;3.00;;;;;25.90;47.21;100921.56;5060569;28;45357;-73
